sensor_id;sensor_type;location;lat;lon;timestamp;P1;durP1;ratioP1;P2;durP2;ratioP2
11618;SDS011;5865;48.776;9.280;2023-02-28T00:00:29;4.17;;;2.00;;
11618;SDS011;5865;48.776;9.280;2023-02-28T00:02:57;2.77;;;1.80;;
11618;SDS011;5865;48.776;9.280;2023-02-28T00:05:25;3.83;;;1.90;;
11618;SDS011;5865;48.776;9.280;2023-02-28T00:07:53;2.83;;;2.07;;
11618;SDS011;5865;48.776;9.280;2023-02-28T00:10:25;2.07;;;1.87;;
11618;SDS011;5865;48.776;9.280;2023-02-28T00:12:53;3.47;;;1.70;;
11618;SDS011;5865;48.776;9.280;2023-02-28T00:15:22;3.67;;;1.73;;
11618;SDS011;5865;48.776;9.280;2023-02-28T00:17:49;2.37;;;1.77;;
11618;SDS011;5865;48.776;9.280;2023-02-28T00:20:18;3.23;;;1.80;;
11618;SDS011;5865;48.776;9.280;2023-02-28T00:22:46;3.03;;;1.90;;
11618;SDS011;5865;48.776;9.280;2023-02-28T00:25:16;2.10;;;1.80;;
11618;SDS011;5865;48.776;9.280;2023-02-28T00:27:44;2.17;;;1.73;;
11618;SDS011;5865;48.776;9.280;2023-02-28T00:30:13;4.93;;;2.20;;
11618;SDS011;5865;48.776;9.280;2023-02-28T00:32:42;2.67;;;1.90;;
11618;SDS011;5865;48.776;9.280;2023-02-28T00:35:10;4.00;;;2.00;;
11618;SDS011;5865;48.776;9.280;2023-02-28T00:37:41;3.13;;;1.90;;
11618;SDS011;5865;48.776;9.280;2023-02-28T00:40:09;2.17;;;1.80;;
11618;SDS011;5865;48.776;9.280;2023-02-28T00:42:37;2.20;;;1.73;;
11618;SDS011;5865;48.776;9.280;2023-02-28T00:45:06;2.47;;;1.83;;
11618;SDS011;5865;48.776;9.280;2023-02-28T00:47:36;2.27;;;1.90;;
11618;SDS011;5865;48.776;9.280;2023-02-28T00:50:04;3.30;;;1.90;;
11618;SDS011;5865;48.776;9.280;2023-02-28T00:52:32;2.73;;;2.00;;
11618;SDS011;5865;48.776;9.280;2023-02-28T00:55:00;1.87;;;1.73;;
11618;SDS011;5865;48.776;9.280;2023-02-28T00:57:29;3.40;;;2.07;;
11618;SDS011;5865;48.776;9.280;2023-02-28T00:59:56;3.60;;;1.97;;
11618;SDS011;5865;48.776;9.280;2023-02-28T01:02:24;3.10;;;2.00;;
11618;SDS011;5865;48.776;9.280;2023-02-28T01:04:51;2.53;;;2.00;;
11618;SDS011;5865;48.776;9.280;2023-02-28T01:07:19;3.80;;;2.07;;
11618;SDS011;5865;48.776;9.280;2023-02-28T01:09:48;2.47;;;1.83;;
11618;SDS011;5865;48.776;9.280;2023-02-28T01:12:17;2.80;;;2.00;;
11618;SDS011;5865;48.776;9.280;2023-02-28T01:14:45;3.67;;;2.10;;
11618;SDS011;5865;48.776;9.280;2023-02-28T01:17:14;3.67;;;2.27;;
11618;SDS011;5865;48.776;9.280;2023-02-28T01:19:42;2.10;;;1.70;;
11618;SDS011;5865;48.776;9.280;2023-02-28T01:22:09;2.33;;;1.90;;
11618;SDS011;5865;48.776;9.280;2023-02-28T01:24:37;3.10;;;2.20;;
11618;SDS011;5865;48.776;9.280;2023-02-28T01:27:04;3.53;;;2.43;;
11618;SDS011;5865;48.776;9.280;2023-02-28T01:29:33;4.50;;;2.23;;
11618;SDS011;5865;48.776;9.280;2023-02-28T01:32:00;3.97;;;2.40;;
11618;SDS011;5865;48.776;9.280;2023-02-28T01:34:27;4.73;;;2.53;;
11618;SDS011;5865;48.776;9.280;2023-02-28T01:36:54;3.23;;;2.33;;
11618;SDS011;5865;48.776;9.280;2023-02-28T01:39:23;4.20;;;2.40;;
11618;SDS011;5865;48.776;9.280;2023-02-28T01:41:51;2.70;;;2.10;;
11618;SDS011;5865;48.776;9.280;2023-02-28T01:47:41;3.67;;;2.40;;
11618;SDS011;5865;48.776;9.280;2023-02-28T01:50:10;3.33;;;2.30;;
11618;SDS011;5865;48.776;9.280;2023-02-28T01:52:40;3.97;;;2.13;;
11618;SDS011;5865;48.776;9.280;2023-02-28T01:55:09;3.50;;;2.40;;
11618;SDS011;5865;48.776;9.280;2023-02-28T01:57:37;3.53;;;2.50;;
11618;SDS011;5865;48.776;9.280;2023-02-28T02:00:09;3.13;;;2.60;;
11618;SDS011;5865;48.776;9.280;2023-02-28T02:02:45;4.20;;;2.47;;
11618;SDS011;5865;48.776;9.280;2023-02-28T02:05:14;4.07;;;2.47;;
11618;SDS011;5865;48.776;9.280;2023-02-28T02:07:44;3.73;;;2.50;;
11618;SDS011;5865;48.776;9.280;2023-02-28T02:10:15;3.10;;;2.27;;
11618;SDS011;5865;48.776;9.280;2023-02-28T02:12:51;4.80;;;2.40;;
11618;SDS011;5865;48.776;9.280;2023-02-28T02:15:38;4.07;;;2.60;;
11618;SDS011;5865;48.776;9.280;2023-02-28T02:18:12;3.13;;;2.50;;
11618;SDS011;5865;48.776;9.280;2023-02-28T02:27:02;3.27;;;2.47;;
11618;SDS011;5865;48.776;9.280;2023-02-28T02:30:10;3.83;;;2.40;;
11618;SDS011;5865;48.776;9.280;2023-02-28T02:33:13;4.97;;;2.80;;
11618;SDS011;5865;48.776;9.280;2023-02-28T02:35:47;3.60;;;2.43;;
11618;SDS011;5865;48.776;9.280;2023-02-28T02:38:20;3.97;;;2.77;;
11618;SDS011;5865;48.776;9.280;2023-02-28T02:40:59;4.43;;;2.67;;
11618;SDS011;5865;48.776;9.280;2023-02-28T02:43:32;2.97;;;2.40;;
11618;SDS011;5865;48.776;9.280;2023-02-28T02:46:04;5.23;;;2.93;;
11618;SDS011;5865;48.776;9.280;2023-02-28T02:48:35;3.73;;;2.77;;
11618;SDS011;5865;48.776;9.280;2023-02-28T02:51:07;5.10;;;2.50;;
11618;SDS011;5865;48.776;9.280;2023-02-28T02:53:41;3.93;;;2.70;;
11618;SDS011;5865;48.776;9.280;2023-02-28T02:56:11;3.07;;;2.57;;
11618;SDS011;5865;48.776;9.280;2023-02-28T02:58:41;4.90;;;2.63;;
11618;SDS011;5865;48.776;9.280;2023-02-28T03:01:10;3.77;;;2.60;;
11618;SDS011;5865;48.776;9.280;2023-02-28T03:03:40;3.73;;;2.67;;
11618;SDS011;5865;48.776;9.280;2023-02-28T03:06:09;3.13;;;2.43;;
11618;SDS011;5865;48.776;9.280;2023-02-28T03:08:37;3.63;;;2.53;;
11618;SDS011;5865;48.776;9.280;2023-02-28T03:11:05;4.53;;;2.80;;
11618;SDS011;5865;48.776;9.280;2023-02-28T03:16:36;4.77;;;2.73;;
11618;SDS011;5865;48.776;9.280;2023-02-28T03:19:27;3.07;;;2.60;;
11618;SDS011;5865;48.776;9.280;2023-02-28T03:22:10;3.97;;;2.57;;
11618;SDS011;5865;48.776;9.280;2023-02-28T03:24:48;5.20;;;2.90;;
11618;SDS011;5865;48.776;9.280;2023-02-28T03:27:20;4.00;;;2.67;;
11618;SDS011;5865;48.776;9.280;2023-02-28T03:29:51;4.67;;;3.10;;
11618;SDS011;5865;48.776;9.280;2023-02-28T03:32:26;3.70;;;2.73;;
11618;SDS011;5865;48.776;9.280;2023-02-28T03:34:56;5.07;;;3.13;;
11618;SDS011;5865;48.776;9.280;2023-02-28T03:37:30;4.80;;;3.20;;
11618;SDS011;5865;48.776;9.280;2023-02-28T03:40:01;3.57;;;2.67;;
11618;SDS011;5865;48.776;9.280;2023-02-28T03:42:33;4.20;;;3.07;;
11618;SDS011;5865;48.776;9.280;2023-02-28T03:45:04;3.67;;;2.90;;
11618;SDS011;5865;48.776;9.280;2023-02-28T03:47:38;5.73;;;3.20;;
11618;SDS011;5865;48.776;9.280;2023-02-28T03:50:10;3.90;;;2.90;;
11618;SDS011;5865;48.776;9.280;2023-02-28T03:52:43;4.40;;;2.97;;
11618;SDS011;5865;48.776;9.280;2023-02-28T03:55:13;4.43;;;3.20;;
11618;SDS011;5865;48.776;9.280;2023-02-28T03:57:43;4.23;;;3.07;;
11618;SDS011;5865;48.776;9.280;2023-02-28T04:00:20;4.60;;;3.20;;
11618;SDS011;5865;48.776;9.280;2023-02-28T04:02:54;4.40;;;3.17;;
11618;SDS011;5865;48.776;9.280;2023-02-28T04:05:21;5.10;;;3.40;;
11618;SDS011;5865;48.776;9.280;2023-02-28T04:07:50;4.10;;;3.10;;
11618;SDS011;5865;48.776;9.280;2023-02-28T04:10:18;5.00;;;3.27;;
11618;SDS011;5865;48.776;9.280;2023-02-28T04:12:44;4.47;;;3.07;;
11618;SDS011;5865;48.776;9.280;2023-02-28T04:15:11;4.20;;;3.20;;
11618;SDS011;5865;48.776;9.280;2023-02-28T04:17:39;4.20;;;2.93;;
11618;SDS011;5865;48.776;9.280;2023-02-28T04:20:06;3.40;;;3.10;;
11618;SDS011;5865;48.776;9.280;2023-02-28T04:22:35;5.83;;;3.00;;
11618;SDS011;5865;48.776;9.280;2023-02-28T04:25:05;4.90;;;3.07;;
11618;SDS011;5865;48.776;9.280;2023-02-28T04:27:33;6.23;;;3.50;;
11618;SDS011;5865;48.776;9.280;2023-02-28T04:30:00;5.20;;;3.10;;
11618;SDS011;5865;48.776;9.280;2023-02-28T04:32:27;6.10;;;3.27;;
11618;SDS011;5865;48.776;9.280;2023-02-28T04:34:54;4.17;;;3.17;;
11618;SDS011;5865;48.776;9.280;2023-02-28T04:37:21;5.07;;;3.07;;
11618;SDS011;5865;48.776;9.280;2023-02-28T04:39:52;3.83;;;2.97;;
11618;SDS011;5865;48.776;9.280;2023-02-28T04:42:21;4.70;;;3.40;;
11618;SDS011;5865;48.776;9.280;2023-02-28T04:44:48;5.67;;;3.70;;
11618;SDS011;5865;48.776;9.280;2023-02-28T04:47:15;6.90;;;3.30;;
11618;SDS011;5865;48.776;9.280;2023-02-28T04:49:42;5.63;;;3.40;;
11618;SDS011;5865;48.776;9.280;2023-02-28T04:52:09;5.67;;;3.57;;
11618;SDS011;5865;48.776;9.280;2023-02-28T04:54:38;4.93;;;3.60;;
11618;SDS011;5865;48.776;9.280;2023-02-28T04:57:05;4.53;;;3.47;;
11618;SDS011;5865;48.776;9.280;2023-02-28T04:59:34;5.33;;;3.53;;
11618;SDS011;5865;48.776;9.280;2023-02-28T05:02:01;5.10;;;3.40;;
11618;SDS011;5865;48.776;9.280;2023-02-28T05:04:32;5.80;;;3.60;;
11618;SDS011;5865;48.776;9.280;2023-02-28T05:06:59;5.37;;;3.27;;
11618;SDS011;5865;48.776;9.280;2023-02-28T05:09:26;5.27;;;3.50;;
11618;SDS011;5865;48.776;9.280;2023-02-28T05:11:54;5.20;;;3.40;;
11618;SDS011;5865;48.776;9.280;2023-02-28T05:14:21;4.03;;;3.00;;
11618;SDS011;5865;48.776;9.280;2023-02-28T05:16:49;5.70;;;3.30;;
11618;SDS011;5865;48.776;9.280;2023-02-28T05:19:16;4.23;;;3.37;;
11618;SDS011;5865;48.776;9.280;2023-02-28T05:21:48;4.47;;;3.43;;
11618;SDS011;5865;48.776;9.280;2023-02-28T05:24:17;4.37;;;3.30;;
11618;SDS011;5865;48.776;9.280;2023-02-28T05:26:47;5.20;;;3.60;;
11618;SDS011;5865;48.776;9.280;2023-02-28T05:29:16;6.13;;;3.90;;
11618;SDS011;5865;48.776;9.280;2023-02-28T05:31:43;4.57;;;3.70;;
11618;SDS011;5865;48.776;9.280;2023-02-28T05:34:11;5.13;;;3.90;;
11618;SDS011;5865;48.776;9.280;2023-02-28T05:36:40;5.17;;;3.80;;
11618;SDS011;5865;48.776;9.280;2023-02-28T05:39:08;4.40;;;3.20;;
11618;SDS011;5865;48.776;9.280;2023-02-28T05:41:38;5.33;;;3.80;;
11618;SDS011;5865;48.776;9.280;2023-02-28T05:44:06;6.60;;;3.57;;
11618;SDS011;5865;48.776;9.280;2023-02-28T05:46:33;5.13;;;3.40;;
11618;SDS011;5865;48.776;9.280;2023-02-28T05:49:00;5.40;;;3.70;;
11618;SDS011;5865;48.776;9.280;2023-02-28T05:51:29;7.87;;;3.50;;
11618;SDS011;5865;48.776;9.280;2023-02-28T05:53:58;5.10;;;3.50;;
11618;SDS011;5865;48.776;9.280;2023-02-28T05:56:26;5.80;;;4.07;;
11618;SDS011;5865;48.776;9.280;2023-02-28T05:58:53;4.47;;;3.30;;
11618;SDS011;5865;48.776;9.280;2023-02-28T06:01:22;6.47;;;4.07;;
11618;SDS011;5865;48.776;9.280;2023-02-28T06:03:50;4.73;;;3.53;;
11618;SDS011;5865;48.776;9.280;2023-02-28T06:06:17;6.93;;;3.87;;
11618;SDS011;5865;48.776;9.280;2023-02-28T06:08:46;6.63;;;4.00;;
11618;SDS011;5865;48.776;9.280;2023-02-28T06:11:13;6.57;;;3.90;;
11618;SDS011;5865;48.776;9.280;2023-02-28T06:13:40;4.87;;;3.80;;
11618;SDS011;5865;48.776;9.280;2023-02-28T06:16:07;4.77;;;3.67;;
11618;SDS011;5865;48.776;9.280;2023-02-28T06:18:36;5.87;;;4.03;;
11618;SDS011;5865;48.776;9.280;2023-02-28T06:21:03;6.87;;;4.20;;
11618;SDS011;5865;48.776;9.280;2023-02-28T06:23:31;4.07;;;3.60;;
11618;SDS011;5865;48.776;9.280;2023-02-28T06:26:00;7.50;;;4.57;;
11618;SDS011;5865;48.776;9.280;2023-02-28T06:28:27;5.37;;;4.03;;
11618;SDS011;5865;48.776;9.280;2023-02-28T06:30:55;6.13;;;4.20;;
11618;SDS011;5865;48.776;9.280;2023-02-28T06:33:22;5.93;;;4.00;;
11618;SDS011;5865;48.776;9.280;2023-02-28T06:35:50;4.80;;;3.70;;
11618;SDS011;5865;48.776;9.280;2023-02-28T06:38:20;6.63;;;4.50;;
11618;SDS011;5865;48.776;9.280;2023-02-28T06:40:52;7.27;;;4.67;;
11618;SDS011;5865;48.776;9.280;2023-02-28T06:43:21;6.17;;;4.50;;
11618;SDS011;5865;48.776;9.280;2023-02-28T06:45:49;6.60;;;4.40;;
11618;SDS011;5865;48.776;9.280;2023-02-28T06:48:16;6.60;;;4.33;;
11618;SDS011;5865;48.776;9.280;2023-02-28T06:50:44;5.43;;;4.40;;
11618;SDS011;5865;48.776;9.280;2023-02-28T06:53:11;7.73;;;4.57;;
11618;SDS011;5865;48.776;9.280;2023-02-28T06:55:40;5.57;;;4.37;;
11618;SDS011;5865;48.776;9.280;2023-02-28T06:58:07;7.67;;;4.93;;
11618;SDS011;5865;48.776;9.280;2023-02-28T07:00:41;6.20;;;4.77;;
11618;SDS011;5865;48.776;9.280;2023-02-28T07:03:09;7.23;;;4.57;;
11618;SDS011;5865;48.776;9.280;2023-02-28T07:05:36;8.27;;;4.53;;
11618;SDS011;5865;48.776;9.280;2023-02-28T07:08:04;6.90;;;4.50;;
11618;SDS011;5865;48.776;9.280;2023-02-28T07:10:32;5.63;;;4.60;;
11618;SDS011;5865;48.776;9.280;2023-02-28T07:12:59;7.60;;;4.97;;
11618;SDS011;5865;48.776;9.280;2023-02-28T07:15:27;7.33;;;4.87;;
11618;SDS011;5865;48.776;9.280;2023-02-28T07:17:56;7.10;;;4.83;;
11618;SDS011;5865;48.776;9.280;2023-02-28T07:20:23;8.73;;;5.13;;
11618;SDS011;5865;48.776;9.280;2023-02-28T07:22:53;8.23;;;5.00;;
11618;SDS011;5865;48.776;9.280;2023-02-28T07:25:21;8.83;;;4.87;;
11618;SDS011;5865;48.776;9.280;2023-02-28T07:27:49;7.77;;;4.67;;
11618;SDS011;5865;48.776;9.280;2023-02-28T07:30:16;7.50;;;5.20;;
11618;SDS011;5865;48.776;9.280;2023-02-28T07:32:44;7.63;;;5.20;;
11618;SDS011;5865;48.776;9.280;2023-02-28T07:35:13;7.13;;;4.90;;
11618;SDS011;5865;48.776;9.280;2023-02-28T07:37:41;8.63;;;5.43;;
11618;SDS011;5865;48.776;9.280;2023-02-28T07:40:09;7.77;;;5.07;;
11618;SDS011;5865;48.776;9.280;2023-02-28T07:42:38;6.93;;;4.57;;
11618;SDS011;5865;48.776;9.280;2023-02-28T07:45:05;6.80;;;5.00;;
11618;SDS011;5865;48.776;9.280;2023-02-28T07:47:33;7.03;;;4.60;;
11618;SDS011;5865;48.776;9.280;2023-02-28T07:50:01;5.80;;;5.00;;
11618;SDS011;5865;48.776;9.280;2023-02-28T07:52:29;7.00;;;4.67;;
11618;SDS011;5865;48.776;9.280;2023-02-28T07:54:57;7.10;;;5.37;;
11618;SDS011;5865;48.776;9.280;2023-02-28T07:57:24;6.20;;;4.77;;
11618;SDS011;5865;48.776;9.280;2023-02-28T07:59:51;8.73;;;5.47;;
11618;SDS011;5865;48.776;9.280;2023-02-28T08:02:18;7.43;;;5.17;;
11618;SDS011;5865;48.776;9.280;2023-02-28T08:04:46;10.07;;;4.77;;
11618;SDS011;5865;48.776;9.280;2023-02-28T08:07:13;9.33;;;5.23;;
11618;SDS011;5865;48.776;9.280;2023-02-28T08:09:42;8.10;;;5.27;;
11618;SDS011;5865;48.776;9.280;2023-02-28T08:12:10;7.83;;;5.00;;
11618;SDS011;5865;48.776;9.280;2023-02-28T08:14:37;8.33;;;5.30;;
11618;SDS011;5865;48.776;9.280;2023-02-28T08:17:05;7.80;;;4.93;;
11618;SDS011;5865;48.776;9.280;2023-02-28T08:19:33;7.13;;;5.20;;
11618;SDS011;5865;48.776;9.280;2023-02-28T08:22:00;7.73;;;5.23;;
11618;SDS011;5865;48.776;9.280;2023-02-28T08:24:27;8.93;;;5.33;;
11618;SDS011;5865;48.776;9.280;2023-02-28T08:26:56;9.00;;;5.20;;
11618;SDS011;5865;48.776;9.280;2023-02-28T08:29:23;8.80;;;5.50;;
11618;SDS011;5865;48.776;9.280;2023-02-28T08:31:50;6.80;;;5.00;;
11618;SDS011;5865;48.776;9.280;2023-02-28T08:34:23;8.70;;;5.80;;
11618;SDS011;5865;48.776;9.280;2023-02-28T08:36:50;7.20;;;5.27;;
11618;SDS011;5865;48.776;9.280;2023-02-28T08:39:18;7.23;;;5.00;;
11618;SDS011;5865;48.776;9.280;2023-02-28T08:41:45;8.70;;;5.57;;
11618;SDS011;5865;48.776;9.280;2023-02-28T08:44:13;6.87;;;5.50;;
11618;SDS011;5865;48.776;9.280;2023-02-28T08:46:41;8.37;;;4.73;;
11618;SDS011;5865;48.776;9.280;2023-02-28T08:49:09;7.57;;;5.43;;
11618;SDS011;5865;48.776;9.280;2023-02-28T08:51:37;6.93;;;4.90;;
11618;SDS011;5865;48.776;9.280;2023-02-28T08:54:05;7.70;;;5.40;;
11618;SDS011;5865;48.776;9.280;2023-02-28T08:56:32;7.37;;;5.10;;
11618;SDS011;5865;48.776;9.280;2023-02-28T08:58:59;7.60;;;5.60;;
11618;SDS011;5865;48.776;9.280;2023-02-28T09:01:28;8.83;;;5.07;;
11618;SDS011;5865;48.776;9.280;2023-02-28T09:03:56;6.70;;;5.50;;
11618;SDS011;5865;48.776;9.280;2023-02-28T09:06:25;7.80;;;5.40;;
11618;SDS011;5865;48.776;9.280;2023-02-28T09:08:52;7.77;;;5.63;;
11618;SDS011;5865;48.776;9.280;2023-02-28T09:11:20;6.57;;;5.00;;
11618;SDS011;5865;48.776;9.280;2023-02-28T09:13:49;8.23;;;5.57;;
11618;SDS011;5865;48.776;9.280;2023-02-28T09:16:18;7.17;;;5.23;;
11618;SDS011;5865;48.776;9.280;2023-02-28T09:18:52;7.23;;;5.43;;
11618;SDS011;5865;48.776;9.280;2023-02-28T09:21:24;7.33;;;5.27;;
11618;SDS011;5865;48.776;9.280;2023-02-28T09:24:08;8.37;;;5.63;;
11618;SDS011;5865;48.776;9.280;2023-02-28T09:26:40;7.67;;;5.60;;
11618;SDS011;5865;48.776;9.280;2023-02-28T09:29:11;7.90;;;5.50;;
11618;SDS011;5865;48.776;9.280;2023-02-28T09:31:45;7.97;;;5.50;;
11618;SDS011;5865;48.776;9.280;2023-02-28T09:34:29;8.33;;;5.53;;
11618;SDS011;5865;48.776;9.280;2023-02-28T09:37:12;8.30;;;5.57;;
11618;SDS011;5865;48.776;9.280;2023-02-28T09:39:39;9.47;;;5.60;;
11618;SDS011;5865;48.776;9.280;2023-02-28T09:42:11;8.03;;;5.90;;
11618;SDS011;5865;48.776;9.280;2023-02-28T09:44:44;8.63;;;5.97;;
11618;SDS011;5865;48.776;9.280;2023-02-28T09:47:17;8.80;;;5.57;;
11618;SDS011;5865;48.776;9.280;2023-02-28T09:49:54;8.27;;;6.03;;
11618;SDS011;5865;48.776;9.280;2023-02-28T09:52:26;7.57;;;5.43;;
11618;SDS011;5865;48.776;9.280;2023-02-28T09:54:55;8.60;;;6.57;;
11618;SDS011;5865;48.776;9.280;2023-02-28T09:57:27;7.10;;;5.30;;
11618;SDS011;5865;48.776;9.280;2023-02-28T10:00:02;7.33;;;6.00;;
11618;SDS011;5865;48.776;9.280;2023-02-28T10:02:44;7.93;;;6.10;;
11618;SDS011;5865;48.776;9.280;2023-02-28T10:05:22;7.40;;;5.40;;
11618;SDS011;5865;48.776;9.280;2023-02-28T10:07:54;9.50;;;5.50;;
11618;SDS011;5865;48.776;9.280;2023-02-28T10:10:27;7.27;;;5.03;;
11618;SDS011;5865;48.776;9.280;2023-02-28T10:13:00;7.93;;;5.50;;
11618;SDS011;5865;48.776;9.280;2023-02-28T10:15:31;9.03;;;5.93;;
11618;SDS011;5865;48.776;9.280;2023-02-28T10:18:01;6.67;;;5.53;;
11618;SDS011;5865;48.776;9.280;2023-02-28T10:20:33;7.37;;;5.97;;
11618;SDS011;5865;48.776;9.280;2023-02-28T10:23:07;8.63;;;6.00;;
11618;SDS011;5865;48.776;9.280;2023-02-28T10:25:39;10.40;;;5.90;;
11618;SDS011;5865;48.776;9.280;2023-02-28T10:28:09;7.50;;;5.87;;
11618;SDS011;5865;48.776;9.280;2023-02-28T10:30:38;6.83;;;5.43;;
11618;SDS011;5865;48.776;9.280;2023-02-28T10:33:12;9.33;;;5.83;;
11618;SDS011;5865;48.776;9.280;2023-02-28T10:35:46;8.77;;;5.83;;
11618;SDS011;5865;48.776;9.280;2023-02-28T10:38:15;7.97;;;6.20;;
11618;SDS011;5865;48.776;9.280;2023-02-28T10:40:44;8.37;;;6.10;;
11618;SDS011;5865;48.776;9.280;2023-02-28T10:43:21;8.60;;;6.40;;
11618;SDS011;5865;48.776;9.280;2023-02-28T10:45:53;8.37;;;6.30;;
11618;SDS011;5865;48.776;9.280;2023-02-28T10:48:28;7.97;;;5.93;;
11618;SDS011;5865;48.776;9.280;2023-02-28T10:51:00;10.30;;;6.10;;
11618;SDS011;5865;48.776;9.280;2023-02-28T10:53:39;7.53;;;5.70;;
11618;SDS011;5865;48.776;9.280;2023-02-28T10:56:15;8.53;;;6.67;;
11618;SDS011;5865;48.776;9.280;2023-02-28T10:58:51;9.97;;;6.60;;
11618;SDS011;5865;48.776;9.280;2023-02-28T11:01:21;8.37;;;6.00;;
11618;SDS011;5865;48.776;9.280;2023-02-28T11:03:50;9.87;;;6.17;;
11618;SDS011;5865;48.776;9.280;2023-02-28T11:06:20;8.80;;;6.20;;
11618;SDS011;5865;48.776;9.280;2023-02-28T11:08:49;8.07;;;6.10;;
11618;SDS011;5865;48.776;9.280;2023-02-28T11:11:18;8.43;;;5.90;;
11618;SDS011;5865;48.776;9.280;2023-02-28T11:13:49;7.20;;;5.67;;
11618;SDS011;5865;48.776;9.280;2023-02-28T11:16:18;8.33;;;5.87;;
11618;SDS011;5865;48.776;9.280;2023-02-28T11:18:47;8.97;;;6.43;;
11618;SDS011;5865;48.776;9.280;2023-02-28T11:21:17;8.73;;;6.33;;
11618;SDS011;5865;48.776;9.280;2023-02-28T11:23:49;9.63;;;5.97;;
11618;SDS011;5865;48.776;9.280;2023-02-28T11:29:12;8.30;;;5.90;;
11618;SDS011;5865;48.776;9.280;2023-02-28T11:31:49;9.37;;;6.50;;
11618;SDS011;5865;48.776;9.280;2023-02-28T11:34:28;9.03;;;6.33;;
11618;SDS011;5865;48.776;9.280;2023-02-28T11:36:58;8.77;;;6.20;;
11618;SDS011;5865;48.776;9.280;2023-02-28T11:39:30;8.10;;;6.20;;
11618;SDS011;5865;48.776;9.280;2023-02-28T11:42:01;7.20;;;6.27;;
11618;SDS011;5865;48.776;9.280;2023-02-28T11:44:43;9.53;;;6.10;;
11618;SDS011;5865;48.776;9.280;2023-02-28T11:47:23;7.67;;;6.20;;
11618;SDS011;5865;48.776;9.280;2023-02-28T11:49:59;8.13;;;5.80;;
11618;SDS011;5865;48.776;9.280;2023-02-28T11:52:40;8.37;;;5.83;;
11618;SDS011;5865;48.776;9.280;2023-02-28T11:55:16;9.23;;;5.97;;
11618;SDS011;5865;48.776;9.280;2023-02-28T12:00:59;9.10;;;6.00;;
11618;SDS011;5865;48.776;9.280;2023-02-28T12:03:43;8.10;;;6.07;;
11618;SDS011;5865;48.776;9.280;2023-02-28T12:06:18;8.23;;;6.00;;
11618;SDS011;5865;48.776;9.280;2023-02-28T12:08:58;9.70;;;5.63;;
11618;SDS011;5865;48.776;9.280;2023-02-28T12:11:37;7.37;;;6.10;;
11618;SDS011;5865;48.776;9.280;2023-02-28T12:14:21;7.40;;;6.07;;
11618;SDS011;5865;48.776;9.280;2023-02-28T12:16:59;8.60;;;6.00;;
11618;SDS011;5865;48.776;9.280;2023-02-28T12:19:39;8.50;;;6.30;;
11618;SDS011;5865;48.776;9.280;2023-02-28T12:22:16;7.23;;;5.80;;
11618;SDS011;5865;48.776;9.280;2023-02-28T12:27:56;8.80;;;6.50;;
11618;SDS011;5865;48.776;9.280;2023-02-28T12:30:24;8.37;;;6.00;;
11618;SDS011;5865;48.776;9.280;2023-02-28T12:32:54;8.20;;;6.00;;
11618;SDS011;5865;48.776;9.280;2023-02-28T12:35:25;7.03;;;5.20;;
11618;SDS011;5865;48.776;9.280;2023-02-28T12:37:55;8.37;;;6.07;;
11618;SDS011;5865;48.776;9.280;2023-02-28T12:40:27;7.87;;;6.13;;
11618;SDS011;5865;48.776;9.280;2023-02-28T12:43:09;7.80;;;5.93;;
11618;SDS011;5865;48.776;9.280;2023-02-28T12:45:40;8.10;;;6.63;;
11618;SDS011;5865;48.776;9.280;2023-02-28T12:48:10;8.10;;;6.17;;
11618;SDS011;5865;48.776;9.280;2023-02-28T12:50:41;8.53;;;6.43;;
11618;SDS011;5865;48.776;9.280;2023-02-28T12:53:09;8.33;;;6.17;;
11618;SDS011;5865;48.776;9.280;2023-02-28T12:55:44;8.20;;;5.87;;
11618;SDS011;5865;48.776;9.280;2023-02-28T12:58:19;8.13;;;6.10;;
11618;SDS011;5865;48.776;9.280;2023-02-28T13:01:04;6.83;;;5.50;;
11618;SDS011;5865;48.776;9.280;2023-02-28T13:04:03;6.53;;;5.77;;
11618;SDS011;5865;48.776;9.280;2023-02-28T13:06:35;8.03;;;5.90;;
11618;SDS011;5865;48.776;9.280;2023-02-28T13:09:21;8.47;;;5.80;;
11618;SDS011;5865;48.776;9.280;2023-02-28T13:11:50;7.47;;;6.40;;
11618;SDS011;5865;48.776;9.280;2023-02-28T13:14:20;7.23;;;5.90;;
11618;SDS011;5865;48.776;9.280;2023-02-28T13:16:55;8.53;;;5.93;;
11618;SDS011;5865;48.776;9.280;2023-02-28T13:19:25;8.27;;;5.93;;
11618;SDS011;5865;48.776;9.280;2023-02-28T13:21:54;7.67;;;5.97;;
11618;SDS011;5865;48.776;9.280;2023-02-28T13:27:31;6.67;;;5.53;;
11618;SDS011;5865;48.776;9.280;2023-02-28T13:29:59;7.37;;;5.57;;
11618;SDS011;5865;48.776;9.280;2023-02-28T13:38:09;9.50;;;5.93;;
11618;SDS011;5865;48.776;9.280;2023-02-28T13:40:48;7.57;;;5.90;;
11618;SDS011;5865;48.776;9.280;2023-02-28T13:43:17;6.80;;;5.33;;
11618;SDS011;5865;48.776;9.280;2023-02-28T13:48:36;7.23;;;5.73;;
11618;SDS011;5865;48.776;9.280;2023-02-28T13:54:07;6.70;;;5.17;;
11618;SDS011;5865;48.776;9.280;2023-02-28T13:56:46;6.93;;;5.53;;
11618;SDS011;5865;48.776;9.280;2023-02-28T13:59:22;7.03;;;5.57;;
11618;SDS011;5865;48.776;9.280;2023-02-28T14:02:01;7.70;;;5.70;;
11618;SDS011;5865;48.776;9.280;2023-02-28T14:04:48;6.87;;;5.37;;
11618;SDS011;5865;48.776;9.280;2023-02-28T14:07:23;10.03;;;5.77;;
11618;SDS011;5865;48.776;9.280;2023-02-28T14:09:57;5.87;;;5.27;;
11618;SDS011;5865;48.776;9.280;2023-02-28T14:18:23;6.83;;;5.67;;
11618;SDS011;5865;48.776;9.280;2023-02-28T14:20:55;8.07;;;5.60;;
11618;SDS011;5865;48.776;9.280;2023-02-28T14:23:43;6.87;;;5.30;;
11618;SDS011;5865;48.776;9.280;2023-02-28T14:32:58;5.67;;;5.03;;
11618;SDS011;5865;48.776;9.280;2023-02-28T14:35:39;6.20;;;5.23;;
11618;SDS011;5865;48.776;9.280;2023-02-28T14:38:18;7.20;;;5.87;;
11618;SDS011;5865;48.776;9.280;2023-02-28T14:40:51;6.97;;;5.60;;
11618;SDS011;5865;48.776;9.280;2023-02-28T14:43:21;7.97;;;5.37;;
11618;SDS011;5865;48.776;9.280;2023-02-28T14:45:49;5.90;;;5.30;;
11618;SDS011;5865;48.776;9.280;2023-02-28T14:48:20;6.40;;;5.47;;
11618;SDS011;5865;48.776;9.280;2023-02-28T14:50:48;8.00;;;5.90;;
11618;SDS011;5865;48.776;9.280;2023-02-28T14:53:17;5.80;;;5.20;;
11618;SDS011;5865;48.776;9.280;2023-02-28T14:55:47;6.67;;;5.60;;
11618;SDS011;5865;48.776;9.280;2023-02-28T14:58:20;5.67;;;4.93;;
11618;SDS011;5865;48.776;9.280;2023-02-28T15:00:50;6.80;;;5.13;;
11618;SDS011;5865;48.776;9.280;2023-02-28T15:03:21;6.13;;;5.50;;
11618;SDS011;5865;48.776;9.280;2023-02-28T15:05:52;7.03;;;5.37;;
11618;SDS011;5865;48.776;9.280;2023-02-28T15:08:21;6.27;;;5.23;;
11618;SDS011;5865;48.776;9.280;2023-02-28T15:10:53;6.83;;;5.17;;
11618;SDS011;5865;48.776;9.280;2023-02-28T15:13:22;7.27;;;5.77;;
11618;SDS011;5865;48.776;9.280;2023-02-28T15:15:53;7.50;;;5.47;;
11618;SDS011;5865;48.776;9.280;2023-02-28T15:18:28;7.00;;;5.50;;
11618;SDS011;5865;48.776;9.280;2023-02-28T15:21:04;7.13;;;5.23;;
11618;SDS011;5865;48.776;9.280;2023-02-28T15:23:32;7.67;;;5.50;;
11618;SDS011;5865;48.776;9.280;2023-02-28T15:26:02;6.80;;;5.63;;
11618;SDS011;5865;48.776;9.280;2023-02-28T15:28:30;6.80;;;5.40;;
11618;SDS011;5865;48.776;9.280;2023-02-28T15:30:58;7.17;;;5.57;;
11618;SDS011;5865;48.776;9.280;2023-02-28T15:33:29;7.67;;;5.90;;
11618;SDS011;5865;48.776;9.280;2023-02-28T15:36:09;9.27;;;5.67;;
11618;SDS011;5865;48.776;9.280;2023-02-28T15:38:40;8.10;;;5.90;;
11618;SDS011;5865;48.776;9.280;2023-02-28T15:41:20;7.83;;;5.70;;
11618;SDS011;5865;48.776;9.280;2023-02-28T15:44:04;8.27;;;5.83;;
11618;SDS011;5865;48.776;9.280;2023-02-28T15:46:41;8.13;;;6.10;;
11618;SDS011;5865;48.776;9.280;2023-02-28T15:49:17;7.57;;;5.97;;
11618;SDS011;5865;48.776;9.280;2023-02-28T15:51:50;8.67;;;6.30;;
11618;SDS011;5865;48.776;9.280;2023-02-28T15:54:20;7.13;;;6.03;;
11618;SDS011;5865;48.776;9.280;2023-02-28T15:56:52;7.73;;;6.13;;
11618;SDS011;5865;48.776;9.280;2023-02-28T15:59:22;7.83;;;6.07;;
11618;SDS011;5865;48.776;9.280;2023-02-28T16:04:58;6.90;;;6.20;;
11618;SDS011;5865;48.776;9.280;2023-02-28T16:07:30;9.97;;;6.47;;
11618;SDS011;5865;48.776;9.280;2023-02-28T16:09:57;6.43;;;5.73;;
11618;SDS011;5865;48.776;9.280;2023-02-28T16:12:26;7.13;;;5.87;;
11618;SDS011;5865;48.776;9.280;2023-02-28T16:14:54;9.83;;;6.10;;